This is the latest recevied weather packets stored in our database for station/object OK1JIL-13. If no packets are shown the sender has not sent any weather packets the latest 10 day(s).
| Time | Temp. | Humidity | Pressure | Rain* | Wind** | Luminosity | Snow |
|---|---|---|---|---|---|---|---|
| 1777205581 | 9.44° C | 32% | 1022.7 hPa | - | - | - | - |
| 1777204981 | 9.44° C | 33% | 1022.6 hPa | - | - | - | - |
| 1777203181 | 9.44° C | 32% | 1022.4 hPa | - | - | - | - |
| 1777202581 | 8.89° C | 33% | 1022.5 hPa | - | - | - | - |
| 1777201381 | 10° C | 32% | 1022.3 hPa | - | - | - | - |
| 1777200781 | 8.33° C | 33% | 1022.3 hPa | - | - | - | - |
| 1777199581 | 10° C | 29% | 1022 hPa | - | - | - | - |
| 1777198381 | 11.11° C | 26% | 1021.8 hPa | - | - | - | - |
| 1777197781 | 10.56° C | 30% | 1021.8 hPa | - | - | - | - |
| 1777197181 | 8.33° C | 34% | 1021.9 hPa | - | - | - | - |
| 1777195981 | 9.44° C | 31% | 1021.7 hPa | - | - | - | - |
| 1777195381 | 8.33° C | 29% | 1021.6 hPa | - | - | - | - |
| 1777194782 | 7.78° C | 30% | 1021.4 hPa | - | - | - | - |
| 1777194181 | 10° C | 28% | 1021.4 hPa | - | - | - | - |
| 1777192380 | 10° C | 29% | 1021 hPa | - | - | - | - |
| 1777191779 | 10° C | 31% | 1020.9 hPa | - | - | - | - |
| 1777191180 | 8.33° C | 31% | 1020.9 hPa | - | - | - | - |
| 1777190580 | 7.78° C | 36% | 1021 hPa | - | - | - | - |
| 1777189979 | 7.78° C | 38% | 1020.8 hPa | - | - | - | - |
| 1777189379 | 6.11° C | 40% | 1020.6 hPa | - | - | - | - |
| 1777188780 | 6.67° C | 40% | 1020.5 hPa | - | - | - | - |
| 1777188180 | 6.11° C | 44% | 1020.3 hPa | - | - | - | - |
| 1777187580 | 7.22° C | 42% | 1020.3 hPa | - | - | - | - |
| 1777186380 | 5.56° C | 47% | 1019.8 hPa | - | - | - | - |
| 1777185780 | 6.67° C | 47% | 1019.6 hPa | - | - | - | - |
* Rain since midnight (hover to see other rain measurements)
** Current wind speed in m/s (hover to see current wind gust speed)